Plum City, Wisconsin
Current Conditions -  °F | °C
As of 3:31 AM on Friday 24 Oct 2014 (Local Time) from KRGK Reporting Station
Haze Haze  
Wind Chill: 48°   Ceiling: Unl
Heat Index: 48°   Visibility: 4mi
Dew Point: 46°   Wind: 0mph
Humidity: 93%   Direction: NA
Pressure: 29.98"   Gusts: NA
Location:  44.63°N, 92.19°W
Report Text: KRGK 240831Z AUTO 00000KT 4SM BR SCT004 09/08 A2998 RMK AO2
Loading
Personal Weather Stations






























Interactive Weather Map
Tropical Storm Tracking
New forecast layout! Learn more

10-Day Weather Forecast

Advertisements
Track Severe Weather on mobile